sensor_id;sensor_type;location;lat;lon;timestamp;pressure;altitude;pressure_sealevel;temperature;humidity
29239;BME280;16267;48.194;11.546;2022-07-29T00:01:08;95911.13;;;23.31;59.06
29239;BME280;16267;48.194;11.546;2022-07-29T00:03:34;95910.38;;;23.30;59.22
29239;BME280;16267;48.194;11.546;2022-07-29T00:06:00;95897.16;;;23.29;59.26
29239;BME280;16267;48.194;11.546;2022-07-29T00:08:26;95896.63;;;23.25;59.54
29239;BME280;16267;48.194;11.546;2022-07-29T00:10:51;95904.59;;;23.23;59.73
29239;BME280;16267;48.194;11.546;2022-07-29T00:13:17;95889.38;;;23.22;59.75
29239;BME280;16267;48.194;11.546;2022-07-29T00:15:43;95889.38;;;23.22;59.74
29239;BME280;16267;48.194;11.546;2022-07-29T00:18:09;95892.63;;;23.20;59.78
29239;BME280;16267;48.194;11.546;2022-07-29T00:20:34;95897.34;;;23.20;60.01
29239;BME280;16267;48.194;11.546;2022-07-29T00:23:00;95898.56;;;23.19;60.29
29239;BME280;16267;48.194;11.546;2022-07-29T00:25:26;95897.56;;;23.16;60.33
29239;BME280;16267;48.194;11.546;2022-07-29T00:27:52;95913.25;;;23.15;60.32
29239;BME280;16267;48.194;11.546;2022-07-29T00:30:17;95912.50;;;23.15;60.50
29239;BME280;16267;48.194;11.546;2022-07-29T00:32:43;95915.69;;;23.13;60.73
29239;BME280;16267;48.194;11.546;2022-07-29T00:35:11;95901.50;;;23.09;61.37
29239;BME280;16267;48.194;11.546;2022-07-29T00:37:56;95909.72;;;23.09;61.45
29239;BME280;16267;48.194;11.546;2022-07-29T00:40:22;95902.72;;;23.08;61.89
29239;BME280;16267;48.194;11.546;2022-07-29T00:42:50;95903.22;;;23.07;61.80
29239;BME280;16267;48.194;11.546;2022-07-29T00:45:17;95886.78;;;23.07;61.92
29239;BME280;16267;48.194;11.546;2022-07-29T00:47:43;95883.78;;;23.05;62.28
29239;BME280;16267;48.194;11.546;2022-07-29T00:50:11;95877.56;;;23.04;62.38
29239;BME280;16267;48.194;11.546;2022-07-29T00:52:39;95876.06;;;23.03;62.74
29239;BME280;16267;48.194;11.546;2022-07-29T00:55:14;95875.81;;;23.01;62.72
29239;BME280;16267;48.194;11.546;2022-07-29T00:57:42;95870.06;;;22.99;62.71
29239;BME280;16267;48.194;11.546;2022-07-29T01:00:12;95873.28;;;22.98;63.38
29239;BME280;16267;48.194;11.546;2022-07-29T01:02:39;95866.78;;;22.95;63.34
29239;BME280;16267;48.194;11.546;2022-07-29T01:05:06;95864.50;;;22.93;63.45
29239;BME280;16267;48.194;11.546;2022-07-29T01:07:35;95853.28;;;22.91;63.46
29239;BME280;16267;48.194;11.546;2022-07-29T01:10:04;95847.06;;;22.91;63.46
29239;BME280;16267;48.194;11.546;2022-07-29T01:12:31;95862.75;;;22.90;63.52
29239;BME280;16267;48.194;11.546;2022-07-29T01:15:00;95860.00;;;22.90;63.44
29239;BME280;16267;48.194;11.546;2022-07-29T01:20:13;95861.25;;;22.89;63.49
29239;BME280;16267;48.194;11.546;2022-07-29T01:28:57;95865.44;;;22.85;64.64
29239;BME280;16267;48.194;11.546;2022-07-29T01:37:29;95859.13;;;22.73;65.54
29239;BME280;16267;48.194;11.546;2022-07-29T01:39:58;95851.88;;;22.70;65.57
29239;BME280;16267;48.194;11.546;2022-07-29T01:42:43;95857.81;;;22.68;65.62
29239;BME280;16267;48.194;11.546;2022-07-29T01:45:25;95851.59;;;22.68;66.11
29239;BME280;16267;48.194;11.546;2022-07-29T01:48:24;95856.53;;;22.64;67.39
29239;BME280;16267;48.194;11.546;2022-07-29T01:51:19;95857.25;;;22.59;68.51
29239;BME280;16267;48.194;11.546;2022-07-29T01:56:47;95857.19;;;22.53;67.57
29239;BME280;16267;48.194;11.546;2022-07-29T01:59:16;95846.25;;;22.53;67.34
29239;BME280;16267;48.194;11.546;2022-07-29T02:01:44;95849.47;;;22.52;67.58
29239;BME280;16267;48.194;11.546;2022-07-29T02:04:12;95855.41;;;22.50;68.12
29239;BME280;16267;48.194;11.546;2022-07-29T02:06:41;95847.69;;;22.48;68.40
29239;BME280;16267;48.194;11.546;2022-07-29T02:09:09;95842.69;;;22.47;69.14
29239;BME280;16267;48.194;11.546;2022-07-29T02:11:36;95840.44;;;22.45;69.46
29239;BME280;16267;48.194;11.546;2022-07-29T02:14:04;95826.97;;;22.42;69.88
29239;BME280;16267;48.194;11.546;2022-07-29T02:16:32;95819.75;;;22.39;69.64
29239;BME280;16267;48.194;11.546;2022-07-29T02:19:02;95826.44;;;22.38;69.53
29239;BME280;16267;48.194;11.546;2022-07-29T02:21:29;95825.44;;;22.35;70.45
29239;BME280;16267;48.194;11.546;2022-07-29T02:24:00;95818.19;;;22.32;70.61
29239;BME280;16267;48.194;11.546;2022-07-29T02:26:28;95817.63;;;22.28;71.16
29239;BME280;16267;48.194;11.546;2022-07-29T02:28:57;95824.84;;;22.25;70.58
29239;BME280;16267;48.194;11.546;2022-07-29T02:31:29;95816.66;;;22.25;70.36
29239;BME280;16267;48.194;11.546;2022-07-29T02:33:57;95817.84;;;22.24;70.40
29239;BME280;16267;48.194;11.546;2022-07-29T02:36:30;95808.91;;;22.24;70.17
29239;BME280;16267;48.194;11.546;2022-07-29T02:38:56;95813.63;;;22.23;70.07
29239;BME280;16267;48.194;11.546;2022-07-29T02:41:33;95813.63;;;22.23;69.98
29239;BME280;16267;48.194;11.546;2022-07-29T02:44:13;95814.84;;;22.22;69.56
29239;BME280;16267;48.194;11.546;2022-07-29T02:46:47;95817.59;;;22.22;70.25
29239;BME280;16267;48.194;11.546;2022-07-29T02:49:43;95814.09;;;22.22;69.98
29239;BME280;16267;48.194;11.546;2022-07-29T02:52:22;95812.13;;;22.22;70.00
29239;BME280;16267;48.194;11.546;2022-07-29T02:55:01;95814.09;;;22.22;70.16
29239;BME280;16267;48.194;11.546;2022-07-29T03:00:28;95806.88;;;22.19;70.43
29239;BME280;16267;48.194;11.546;2022-07-29T03:02:59;95797.19;;;22.18;70.54
29239;BME280;16267;48.194;11.546;2022-07-29T03:05:27;95792.16;;;22.16;70.89
29239;BME280;16267;48.194;11.546;2022-07-29T03:08:01;95804.06;;;22.13;71.61
29239;BME280;16267;48.194;11.546;2022-07-29T03:10:28;95800.50;;;22.07;71.75
29239;BME280;16267;48.194;11.546;2022-07-29T03:12:58;95806.94;;;22.04;71.83
29239;BME280;16267;48.194;11.546;2022-07-29T03:15:25;95801.94;;;22.02;71.46
29239;BME280;16267;48.194;11.546;2022-07-29T03:17:53;95810.34;;;21.99;72.10
29239;BME280;16267;48.194;11.546;2022-07-29T03:20:20;95805.34;;;21.97;71.63
29239;BME280;16267;48.194;11.546;2022-07-29T03:22:46;95807.06;;;21.95;71.17
29239;BME280;16267;48.194;11.546;2022-07-29T03:25:13;95807.84;;;21.95;71.31
29239;BME280;16267;48.194;11.546;2022-07-29T03:27:44;95811.03;;;21.94;71.36
29239;BME280;16267;48.194;11.546;2022-07-29T03:30:12;95806.06;;;21.92;71.58
29239;BME280;16267;48.194;11.546;2022-07-29T03:32:40;95810.75;;;21.92;71.22
29239;BME280;16267;48.194;11.546;2022-07-29T03:35:06;95808.53;;;21.90;71.27
29239;BME280;16267;48.194;11.546;2022-07-29T03:37:33;95800.78;;;21.89;71.12
29239;BME280;16267;48.194;11.546;2022-07-29T03:40:02;95798.56;;;21.87;71.49
29239;BME280;16267;48.194;11.546;2022-07-29T03:42:32;95803.75;;;21.85;71.71
29239;BME280;16267;48.194;11.546;2022-07-29T03:45:06;95812.16;;;21.81;71.49
29239;BME280;16267;48.194;11.546;2022-07-29T03:47:35;95802.19;;;21.78;71.86
29239;BME280;16267;48.194;11.546;2022-07-29T03:50:06;95799.91;;;21.77;71.73
29239;BME280;16267;48.194;11.546;2022-07-29T03:52:34;95806.81;;;21.72;72.14
29239;BME280;16267;48.194;11.546;2022-07-29T03:55:01;95816.44;;;21.68;72.33
29239;BME280;16267;48.194;11.546;2022-07-29T03:57:28;95817.66;;;21.67;72.39
29239;BME280;16267;48.194;11.546;2022-07-29T03:59:56;95818.91;;;21.66;72.16
29239;BME280;16267;48.194;11.546;2022-07-29T04:02:23;95831.06;;;21.65;72.09
29239;BME280;16267;48.194;11.546;2022-07-29T04:04:51;95821.84;;;21.62;72.10
29239;BME280;16267;48.194;11.546;2022-07-29T04:07:17;95827.78;;;21.60;72.62
29239;BME280;16267;48.194;11.546;2022-07-29T04:09:43;95826.28;;;21.59;72.21
29239;BME280;16267;48.194;11.546;2022-07-29T04:12:10;95825.53;;;21.59;72.09
29239;BME280;16267;48.194;11.546;2022-07-29T04:14:36;95823.25;;;21.57;71.91
29239;BME280;16267;48.194;11.546;2022-07-29T04:17:03;95816.31;;;21.56;71.99
29239;BME280;16267;48.194;11.546;2022-07-29T04:19:31;95827.97;;;21.57;71.95
29239;BME280;16267;48.194;11.546;2022-07-29T04:21:59;95820.25;;;21.55;72.06
29239;BME280;16267;48.194;11.546;2022-07-29T04:24:27;95825.72;;;21.55;72.19
29239;BME280;16267;48.194;11.546;2022-07-29T04:26:53;95824.22;;;21.54;72.26
29239;BME280;16267;48.194;11.546;2022-07-29T04:29:19;95825.47;;;21.53;72.10
29239;BME280;16267;48.194;11.546;2022-07-29T04:31:45;95828.94;;;21.54;72.64
29239;BME280;16267;48.194;11.546;2022-07-29T04:34:12;95828.94;;;21.54;73.44
29239;BME280;16267;48.194;11.546;2022-07-29T04:36:38;95838.34;;;21.53;73.30
29239;BME280;16267;48.194;11.546;2022-07-29T04:39:04;95838.34;;;21.53;73.41
29239;BME280;16267;48.194;11.546;2022-07-29T04:41:30;95836.84;;;21.52;74.11
29239;BME280;16267;48.194;11.546;2022-07-29T04:43:56;95844.28;;;21.51;74.78
29239;BME280;16267;48.194;11.546;2022-07-29T04:46:22;95844.28;;;21.51;74.15
29239;BME280;16267;48.194;11.546;2022-07-29T04:48:48;95845.31;;;21.54;74.40
29239;BME280;16267;48.194;11.546;2022-07-29T04:51:15;95848.78;;;21.54;74.07
29239;BME280;16267;48.194;11.546;2022-07-29T04:53:41;95857.28;;;21.56;73.89
29239;BME280;16267;48.194;11.546;2022-07-29T04:56:08;95846.59;;;21.58;74.02
29239;BME280;16267;48.194;11.546;2022-07-29T04:58:35;95853.59;;;21.59;74.27
29239;BME280;16267;48.194;11.546;2022-07-29T05:01:01;95855.81;;;21.61;74.30
29239;BME280;16267;48.194;11.546;2022-07-29T05:03:27;95858.84;;;21.63;74.01
29239;BME280;16267;48.194;11.546;2022-07-29T05:05:53;95863.06;;;21.64;73.96
29239;BME280;16267;48.194;11.546;2022-07-29T05:08:18;95862.88;;;21.68;73.74
29239;BME280;16267;48.194;11.546;2022-07-29T05:10:45;95855.44;;;21.68;74.65
29239;BME280;16267;48.194;11.546;2022-07-29T05:13:11;95861.66;;;21.69;75.19
29239;BME280;16267;48.194;11.546;2022-07-29T05:15:38;95862.38;;;21.69;74.88
29239;BME280;16267;48.194;11.546;2022-07-29T05:18:04;95860.91;;;21.68;74.16
29239;BME280;16267;48.194;11.546;2022-07-29T05:20:31;95861.66;;;21.69;74.02
29239;BME280;16267;48.194;11.546;2022-07-29T05:22:59;95862.22;;;21.73;73.70
29239;BME280;16267;48.194;11.546;2022-07-29T05:25:26;95863.97;;;21.76;73.70
29239;BME280;16267;48.194;11.546;2022-07-29T05:27:52;95857.56;;;21.79;73.68
29239;BME280;16267;48.194;11.546;2022-07-29T05:30:18;95862.81;;;21.82;73.66
29239;BME280;16267;48.194;11.546;2022-07-29T05:32:44;95865.81;;;21.85;73.75
29239;BME280;16267;48.194;11.546;2022-07-29T05:35:11;95866.09;;;21.87;73.58
29239;BME280;16267;48.194;11.546;2022-07-29T05:37:37;95872.09;;;21.91;73.67
29239;BME280;16267;48.194;11.546;2022-07-29T05:40:04;95872.38;;;21.93;73.86
29239;BME280;16267;48.194;11.546;2022-07-29T05:42:30;95871.16;;;21.94;73.53
29239;BME280;16267;48.194;11.546;2022-07-29T05:44:56;95877.19;;;21.98;73.37
29239;BME280;16267;48.194;11.546;2022-07-29T05:47:23;95870.00;;;22.00;72.92
29239;BME280;16267;48.194;11.546;2022-07-29T05:49:49;95874.97;;;22.02;73.16
29239;BME280;16267;48.194;11.546;2022-07-29T05:52:16;95874.75;;;22.05;72.79
29239;BME280;16267;48.194;11.546;2022-07-29T05:54:41;95876.34;;;22.12;72.43
29239;BME280;16267;48.194;11.546;2022-07-29T05:57:07;95877.47;;;22.20;71.93
29239;BME280;16267;48.194;11.546;2022-07-29T05:59:37;95874.31;;;22.27;71.40
29239;BME280;16267;48.194;11.546;2022-07-29T06:02:03;95876.63;;;22.35;71.06
29239;BME280;16267;48.194;11.546;2022-07-29T06:04:31;95879.22;;;22.44;70.61
29239;BME280;16267;48.194;11.546;2022-07-29T06:06:57;95880.00;;;22.50;70.32
29239;BME280;16267;48.194;11.546;2022-07-29T06:09:23;95874.88;;;22.58;69.93
29239;BME280;16267;48.194;11.546;2022-07-29T06:11:49;95879.94;;;22.65;70.19
29239;BME280;16267;48.194;11.546;2022-07-29T06:14:15;95881.47;;;22.71;69.64
29239;BME280;16267;48.194;11.546;2022-07-29T06:16:41;95874.28;;;22.74;68.74
29239;BME280;16267;48.194;11.546;2022-07-29T06:19:07;95884.25;;;22.77;68.77
29239;BME280;16267;48.194;11.546;2022-07-29T06:21:33;95879.84;;;22.85;68.62
29239;BME280;16267;48.194;11.546;2022-07-29T06:23:59;95884.16;;;22.92;68.53
29239;BME280;16267;48.194;11.546;2022-07-29T06:26:25;95871.78;;;22.97;68.15
29239;BME280;16267;48.194;11.546;2022-07-29T06:28:51;95875.53;;;22.99;67.92
29239;BME280;16267;48.194;11.546;2022-07-29T06:31:16;95880.31;;;23.04;67.81
29239;BME280;16267;48.194;11.546;2022-07-29T06:33:42;95879.84;;;23.06;67.00
29239;BME280;16267;48.194;11.546;2022-07-29T06:36:08;95881.84;;;23.11;67.11
29239;BME280;16267;48.194;11.546;2022-07-29T06:38:34;95879.91;;;23.17;67.29
29239;BME280;16267;48.194;11.546;2022-07-29T06:41:00;95888.16;;;23.23;66.86
29239;BME280;16267;48.194;11.546;2022-07-29T06:43:39;95881.50;;;23.29;66.50
29239;BME280;16267;48.194;11.546;2022-07-29T06:46:12;95884.25;;;23.35;66.37
29239;BME280;16267;48.194;11.546;2022-07-29T06:48:40;95886.53;;;23.36;66.82
29239;BME280;16267;48.194;11.546;2022-07-29T06:51:08;95890.25;;;23.33;66.05
29239;BME280;16267;48.194;11.546;2022-07-29T06:53:35;95893.94;;;23.30;66.61
29239;BME280;16267;48.194;11.546;2022-07-29T06:56:03;95891.44;;;23.27;65.85
29239;BME280;16267;48.194;11.546;2022-07-29T06:58:30;95901.91;;;23.28;65.07
29239;BME280;16267;48.194;11.546;2022-07-29T07:01:02;95894.47;;;23.34;65.06
29239;BME280;16267;48.194;11.546;2022-07-29T07:03:28;95900.25;;;23.42;65.29
29239;BME280;16267;48.194;11.546;2022-07-29T07:05:54;95902.25;;;23.47;65.37
29239;BME280;16267;48.194;11.546;2022-07-29T07:08:21;95911.78;;;23.52;65.54
29239;BME280;16267;48.194;11.546;2022-07-29T07:10:48;95907.06;;;23.58;65.43
29239;BME280;16267;48.194;11.546;2022-07-29T07:13:14;95910.06;;;23.60;65.37
29239;BME280;16267;48.194;11.546;2022-07-29T07:15:40;95907.38;;;23.66;64.23
29239;BME280;16267;48.194;11.546;2022-07-29T07:18:06;95898.47;;;23.71;63.82
29239;BME280;16267;48.194;11.546;2022-07-29T07:20:33;95893.28;;;23.78;63.70
29239;BME280;16267;48.194;11.546;2022-07-29T07:22:59;95901.53;;;23.84;63.69
29239;BME280;16267;48.194;11.546;2022-07-29T07:25:25;95899.31;;;23.88;62.80
29239;BME280;16267;48.194;11.546;2022-07-29T07:27:53;95895.38;;;23.95;62.51
29239;BME280;16267;48.194;11.546;2022-07-29T07:30:19;95900.88;;;24.00;61.76
29239;BME280;16267;48.194;11.546;2022-07-29T07:32:45;95893.44;;;24.07;61.56
29239;BME280;16267;48.194;11.546;2022-07-29T07:35:11;95884.97;;;24.10;60.91
29239;BME280;16267;48.194;11.546;2022-07-29T07:37:38;95887.47;;;24.14;60.37
29239;BME280;16267;48.194;11.546;2022-07-29T07:40:08;95892.47;;;24.15;60.38
29239;BME280;16267;48.194;11.546;2022-07-29T07:42:35;95889.72;;;24.15;59.28
29239;BME280;16267;48.194;11.546;2022-07-29T07:45:00;95890.25;;;24.19;58.90
29239;BME280;16267;48.194;11.546;2022-07-29T07:47:26;95892.75;;;24.23;59.69
29239;BME280;16267;48.194;11.546;2022-07-29T07:49:53;95889.75;;;24.26;57.73
29239;BME280;16267;48.194;11.546;2022-07-29T07:52:21;95893.78;;;24.31;57.93
29239;BME280;16267;48.194;11.546;2022-07-29T07:54:48;95893.28;;;24.38;57.86
29239;BME280;16267;48.194;11.546;2022-07-29T07:57:15;95895.31;;;24.43;56.31
29239;BME280;16267;48.194;11.546;2022-07-29T07:59:41;95891.84;;;24.48;56.49
29239;BME280;16267;48.194;11.546;2022-07-29T08:02:08;95887.38;;;24.57;56.78
29239;BME280;16267;48.194;11.546;2022-07-29T08:04:34;95880.66;;;24.63;56.47
29239;BME280;16267;48.194;11.546;2022-07-29T08:07:01;95889.16;;;24.71;55.98
29239;BME280;16267;48.194;11.546;2022-07-29T08:09:28;95895.91;;;24.76;55.82
29239;BME280;16267;48.194;11.546;2022-07-29T08:11:55;95896.66;;;24.82;55.75
29239;BME280;16267;48.194;11.546;2022-07-29T08:14:21;95896.19;;;24.89;55.16
29239;BME280;16267;48.194;11.546;2022-07-29T08:16:47;95894.44;;;24.91;55.32
29239;BME280;16267;48.194;11.546;2022-07-29T08:19:14;95895.69;;;24.96;55.40
29239;BME280;16267;48.194;11.546;2022-07-29T08:21:40;95906.66;;;25.02;54.91
29239;BME280;16267;48.194;11.546;2022-07-29T08:24:06;95900.44;;;25.07;53.75
29239;BME280;16267;48.194;11.546;2022-07-29T08:26:51;95895.44;;;25.11;53.56
29239;BME280;16267;48.194;11.546;2022-07-29T08:29:16;95890.47;;;25.15;54.13
29239;BME280;16267;48.194;11.546;2022-07-29T08:31:43;95884.25;;;25.20;54.86
29239;BME280;16267;48.194;11.546;2022-07-29T08:34:09;95885.22;;;25.28;54.63
29239;BME280;16267;48.194;11.546;2022-07-29T08:36:35;95889.47;;;25.35;54.57
29239;BME280;16267;48.194;11.546;2022-07-29T08:39:01;95892.47;;;25.43;53.82
29239;BME280;16267;48.194;11.546;2022-07-29T08:41:27;95896.94;;;25.46;53.57
29239;BME280;16267;48.194;11.546;2022-07-29T08:43:53;95901.94;;;25.53;53.89
29239;BME280;16267;48.194;11.546;2022-07-29T08:46:20;95887.69;;;25.60;53.58
29239;BME280;16267;48.194;11.546;2022-07-29T08:48:47;95892.16;;;25.69;53.80
29239;BME280;16267;48.194;11.546;2022-07-29T08:51:16;95898.16;;;25.78;53.83
29239;BME280;16267;48.194;11.546;2022-07-29T08:53:45;95901.63;;;25.90;53.91
29239;BME280;16267;48.194;11.546;2022-07-29T08:56:18;95884.84;;;25.99;53.83
29239;BME280;16267;48.194;11.546;2022-07-29T08:58:46;95892.59;;;26.07;53.34
29239;BME280;16267;48.194;11.546;2022-07-29T09:01:23;95890.56;;;26.13;52.09
29239;BME280;16267;48.194;11.546;2022-07-29T09:03:49;95899.56;;;26.19;52.08
29239;BME280;16267;48.194;11.546;2022-07-29T09:06:18;95903.78;;;26.20;52.15
29239;BME280;16267;48.194;11.546;2022-07-29T09:08:45;95913.78;;;26.23;50.95
29239;BME280;16267;48.194;11.546;2022-07-29T09:11:14;95909.28;;;26.25;50.36
29239;BME280;16267;48.194;11.546;2022-07-29T09:13:40;95913.75;;;26.29;51.00
29239;BME280;16267;48.194;11.546;2022-07-29T09:16:06;95916.97;;;26.33;51.69
29239;BME280;16267;48.194;11.546;2022-07-29T09:18:46;95910.72;;;26.38;51.47
29239;BME280;16267;48.194;11.546;2022-07-29T09:21:17;95916.97;;;26.33;50.32
29239;BME280;16267;48.194;11.546;2022-07-29T09:24:13;95907.75;;;26.36;50.95
29239;BME280;16267;48.194;11.546;2022-07-29T09:26:42;95900.94;;;26.42;51.05
29239;BME280;16267;48.194;11.546;2022-07-29T09:29:11;95898.91;;;26.54;51.07
29239;BME280;16267;48.194;11.546;2022-07-29T09:31:41;95901.41;;;26.58;50.23
29239;BME280;16267;48.194;11.546;2022-07-29T09:34:08;95901.09;;;26.67;50.84
29239;BME280;16267;48.194;11.546;2022-07-29T09:36:48;95900.03;;;26.76;49.81
29239;BME280;16267;48.194;11.546;2022-07-29T09:39:17;95907.75;;;26.83;49.73
29239;BME280;16267;48.194;11.546;2022-07-29T09:41:56;95904.97;;;26.88;49.75
29239;BME280;16267;48.194;11.546;2022-07-29T09:44:23;95903.66;;;26.95;49.61
29239;BME280;16267;48.194;11.546;2022-07-29T09:47:00;95906.13;;;26.99;49.76
29239;BME280;16267;48.194;11.546;2022-07-29T09:52:15;95890.91;;;26.92;49.03
29239;BME280;16267;48.194;11.546;2022-07-29T09:54:41;95899.94;;;26.92;49.33
29239;BME280;16267;48.194;11.546;2022-07-29T09:57:26;95897.22;;;26.87;49.37
29239;BME280;16267;48.194;11.546;2022-07-29T10:00:06;95897.44;;;26.89;49.94
29239;BME280;16267;48.194;11.546;2022-07-29T10:02:35;95895.69;;;26.91;50.48
29239;BME280;16267;48.194;11.546;2022-07-29T10:05:05;95895.44;;;26.89;49.99
29239;BME280;16267;48.194;11.546;2022-07-29T10:07:57;95894.66;;;26.95;49.56
29239;BME280;16267;48.194;11.546;2022-07-29T10:10:30;95897.13;;;26.98;49.37
29239;BME280;16267;48.194;11.546;2022-07-29T10:12:59;95890.59;;;27.01;48.84
29239;BME280;16267;48.194;11.546;2022-07-29T10:15:29;95890.59;;;27.01;48.92
29239;BME280;16267;48.194;11.546;2022-07-29T10:17:57;95887.34;;;27.03;49.39
29239;BME280;16267;48.194;11.546;2022-07-29T10:20:25;95889.78;;;27.12;49.92
29239;BME280;16267;48.194;11.546;2022-07-29T10:22:52;95890.75;;;27.14;51.05
29239;BME280;16267;48.194;11.546;2022-07-29T10:25:21;95891.50;;;27.15;49.42
29239;BME280;16267;48.194;11.546;2022-07-29T10:27:49;95894.78;;;27.13;49.71
29239;BME280;16267;48.194;11.546;2022-07-29T10:30:18;95898.78;;;27.12;50.03
29239;BME280;16267;48.194;11.546;2022-07-29T10:39:17;95894.25;;;27.15;50.35
29239;BME280;16267;48.194;11.546;2022-07-29T10:41:56;95893.25;;;27.18;49.63
29239;BME280;16267;48.194;11.546;2022-07-29T10:44:25;95893.50;;;27.20;50.17
29239;BME280;16267;48.194;11.546;2022-07-29T10:46:53;95891.44;;;27.26;50.50
29239;BME280;16267;48.194;11.546;2022-07-29T10:49:23;95894.66;;;27.30;50.28
29239;BME280;16267;48.194;11.546;2022-07-29T10:52:09;95890.09;;;27.39;50.01
29239;BME280;16267;48.194;11.546;2022-07-29T10:57:30;95874.94;;;27.51;49.16
29239;BME280;16267;48.194;11.546;2022-07-29T11:05:18;95875.75;;;27.70;47.08
29239;BME280;16267;48.194;11.546;2022-07-29T11:10:40;95878.97;;;27.74;46.04
29239;BME280;16267;48.194;11.546;2022-07-29T11:13:06;95872.19;;;27.75;46.49
29239;BME280;16267;48.194;11.546;2022-07-29T11:15:55;95869.63;;;27.83;46.58
29239;BME280;16267;48.194;11.546;2022-07-29T11:18:21;95871.03;;;27.90;46.57
29239;BME280;16267;48.194;11.546;2022-07-29T11:20:51;95872.56;;;27.91;46.23
29239;BME280;16267;48.194;11.546;2022-07-29T11:23:26;95875.75;;;27.95;46.53
29239;BME280;16267;48.194;11.546;2022-07-29T11:31:18;95870.91;;;28.01;43.97
29239;BME280;16267;48.194;11.546;2022-07-29T11:33:45;95869.38;;;28.06;44.33
29239;BME280;16267;48.194;11.546;2022-07-29T11:36:13;95874.81;;;28.11;44.50
29239;BME280;16267;48.194;11.546;2022-07-29T11:38:41;95871.53;;;28.13;44.61
29239;BME280;16267;48.194;11.546;2022-07-29T11:41:26;95859.31;;;28.27;45.12
29239;BME280;16267;48.194;11.546;2022-07-29T11:43:57;95857.09;;;28.44;45.17
29239;BME280;16267;48.194;11.546;2022-07-29T11:46:50;95858.22;;;28.55;42.08
29239;BME280;16267;48.194;11.546;2022-07-29T11:49:25;95868.97;;;28.58;43.26
29239;BME280;16267;48.194;11.546;2022-07-29T11:51:52;95849.94;;;28.55;41.31
29239;BME280;16267;48.194;11.546;2022-07-29T11:54:26;95861.28;;;28.51;40.48
29239;BME280;16267;48.194;11.546;2022-07-29T11:56:52;95854.28;;;28.50;38.95
29239;BME280;16267;48.194;11.546;2022-07-29T11:59:19;95861.34;;;28.45;37.88
29239;BME280;16267;48.194;11.546;2022-07-29T12:01:58;95853.13;;;28.40;37.84
29239;BME280;16267;48.194;11.546;2022-07-29T12:04:25;95860.97;;;28.36;38.13
29239;BME280;16267;48.194;11.546;2022-07-29T12:06:56;95849.47;;;28.32;38.39
29239;BME280;16267;48.194;11.546;2022-07-29T12:09:23;95849.69;;;28.34;38.83
29239;BME280;16267;48.194;11.546;2022-07-29T12:11:59;95851.19;;;28.35;38.49
29239;BME280;16267;48.194;11.546;2022-07-29T12:14:30;95852.44;;;28.34;39.02
29239;BME280;16267;48.194;11.546;2022-07-29T12:16:58;95844.41;;;28.36;38.98
29239;BME280;16267;48.194;11.546;2022-07-29T12:19:25;95845.88;;;28.37;39.63
29239;BME280;16267;48.194;11.546;2022-07-29T12:21:53;95850.91;;;28.38;39.13
29239;BME280;16267;48.194;11.546;2022-07-29T12:24:20;95842.06;;;28.40;39.76
29239;BME280;16267;48.194;11.546;2022-07-29T12:26:56;95841.09;;;28.37;39.70
29239;BME280;16267;48.194;11.546;2022-07-29T12:29:22;95832.78;;;28.43;40.32
29239;BME280;16267;48.194;11.546;2022-07-29T12:31:54;95831.53;;;28.44;40.78
29239;BME280;16267;48.194;11.546;2022-07-29T12:34:23;95836.75;;;28.48;41.24
29239;BME280;16267;48.194;11.546;2022-07-29T12:36:51;95832.94;;;28.51;41.04
29239;BME280;16267;48.194;11.546;2022-07-29T12:39:17;95831.88;;;28.54;40.84
29239;BME280;16267;48.194;11.546;2022-07-29T12:41:45;95832.41;;;28.52;39.96
29239;BME280;16267;48.194;11.546;2022-07-29T12:44:11;95830.91;;;28.51;39.94
29239;BME280;16267;48.194;11.546;2022-07-29T12:46:37;95837.78;;;28.44;40.08
29239;BME280;16267;48.194;11.546;2022-07-29T12:49:03;95831.78;;;28.40;40.48
29239;BME280;16267;48.194;11.546;2022-07-29T12:51:30;95830.81;;;28.38;40.90
29239;BME280;16267;48.194;11.546;2022-07-29T12:54:15;95825.81;;;28.36;40.68
29239;BME280;16267;48.194;11.546;2022-07-29T12:56:43;95839.94;;;28.33;40.29
29239;BME280;16267;48.194;11.546;2022-07-29T12:59:18;95832.16;;;28.31;40.75
29239;BME280;16267;48.194;11.546;2022-07-29T13:01:46;95830.69;;;28.30;40.75
29239;BME280;16267;48.194;11.546;2022-07-29T13:04:32;95831.03;;;28.21;39.13
29239;BME280;16267;48.194;11.546;2022-07-29T13:07:06;95825.16;;;28.11;38.63
29239;BME280;16267;48.194;11.546;2022-07-29T13:09:44;95830.97;;;28.08;39.62
29239;BME280;16267;48.194;11.546;2022-07-29T13:12:14;95826.28;;;28.02;39.29
29239;BME280;16267;48.194;11.546;2022-07-29T13:14:44;95829.38;;;27.93;38.99
29239;BME280;16267;48.194;11.546;2022-07-29T13:17:22;95830.72;;;27.87;39.74
29239;BME280;16267;48.194;11.546;2022-07-29T13:20:08;95826.03;;;27.76;39.36
29239;BME280;16267;48.194;11.546;2022-07-29T13:22:38;95827.63;;;27.71;40.50
29239;BME280;16267;48.194;11.546;2022-07-29T13:25:06;95832.16;;;27.69;41.55
29239;BME280;16267;48.194;11.546;2022-07-29T13:27:34;95832.44;;;27.65;41.53
29239;BME280;16267;48.194;11.546;2022-07-29T13:30:06;95832.22;;;27.63;41.48
29239;BME280;16267;48.194;11.546;2022-07-29T13:32:33;95837.50;;;27.61;42.32
29239;BME280;16267;48.194;11.546;2022-07-29T13:35:07;95837.25;;;27.59;42.50
29239;BME280;16267;48.194;11.546;2022-07-29T13:37:34;95840.81;;;27.54;42.21
29239;BME280;16267;48.194;11.546;2022-07-29T13:40:05;95845.34;;;27.51;42.68
29239;BME280;16267;48.194;11.546;2022-07-29T13:42:32;95842.38;;;27.49;43.24
29239;BME280;16267;48.194;11.546;2022-07-29T13:44:59;95841.63;;;27.49;43.11
29239;BME280;16267;48.194;11.546;2022-07-29T13:47:25;95832.38;;;27.46;43.71